This is the latest recevied weather packets stored in our database for station/object CE1JFB-10. If no packets are shown the sender has not sent any weather packets the latest 10 day(s).
| Time | Temp. | Humidity | Pressure | Rain* | Wind** | Luminosity | Snow |
|---|---|---|---|---|---|---|---|
| 1787897036 | 21.67° C | 63% | 1013 hPa | - | - | - | - |
| 1787893436 | 21.67° C | 62% | 1013.2 hPa | - | - | - | - |
| 1787889836 | 22.22° C | 60% | 1013.3 hPa | - | - | - | - |
| 1787886236 | 22.22° C | 62% | 1013.2 hPa | - | - | - | - |
| 1787882636 | 22.22° C | 62% | 1012.8 hPa | - | - | - | - |
| 1787879036 | 22.22° C | 61% | 1012.6 hPa | - | - | - | - |
| 1787875436 | 22.22° C | 62% | 1012.2 hPa | - | - | - | - |
| 1787871836 | 22.22° C | 61% | 1011.4 hPa | - | - | - | - |
| 1787868236 | 22.78° C | 60% | 1010.8 hPa | - | - | - | - |
| 1787864635 | 22.78° C | 60% | 1010.4 hPa | - | - | - | - |
| 1787861035 | 22.78° C | 62% | 1010.2 hPa | - | - | - | - |
| 1787857435 | 22.22° C | 61% | 1010.1 hPa | - | - | - | - |
| 1787853835 | 23.89° C | 57% | 1010.4 hPa | - | - | - | - |
| 1787850235 | 23.89° C | 59% | 1010.7 hPa | - | - | - | - |
| 1787846635 | 22.78° C | 62% | 1011.1 hPa | - | - | - | - |
| 1787843035 | 22.22° C | 66% | 1011.9 hPa | - | - | - | - |
| 1787839435 | 21.67° C | 65% | 1011.9 hPa | - | - | - | - |
| 1787835835 | 21.11° C | 66% | 1011.4 hPa | - | - | - | - |
| 1787832235 | 21.11° C | 67% | 1011.1 hPa | - | - | - | - |
| 1787828634 | 21.11° C | 67% | 1010.6 hPa | - | - | - | - |
| 1787825034 | 21.11° C | 68% | 1010 hPa | - | - | - | - |
| 1787821434 | 21.11° C | 68% | 1009.8 hPa | - | - | - | - |
| 1787817834 | 21.11° C | 68% | 1009.7 hPa | - | - | - | - |
| 1787814234 | 21.11° C | 67% | 1010 hPa | - | - | - | - |
| 1787810634 | 21.11° C | 66% | 1010.7 hPa | - | - | - | - |
* Rain since midnight (hover to see other rain measurements)
** Current wind speed in m/s (hover to see current wind gust speed)